logo
Search for airport 
image banner adimage banner adimage banner ad
image banner ad

ED1766 - Oschatz Collm-Klinik

Located in Oschatz, Germany

ICAO - , IATA -

Data provided by Airmate  

General information

Coordinates: N51°17'31" E13°6'50"
Elevation is 498 feet MSL.
 
View others Airports in Saxony

Operational data

Special qualification required
Current time UTC:
Current local time:
Weather at : EDDC - Dresden ( 49 km )
METAR: EDDC 220250Z AUTO 22009KT CAVOK 17/15 Q1010
TAF: TAF EDDC 212300Z 2200/2224 21008KT 9999 SCT030 TEMPO 2200/2215 23015G25KT PROB30 TEMPO 2200/2206 RA BECMG 2216/2218 28005KT
View NOTAMs / SUP AIP / TFR affecting this airport [VIEW]
Communications frequencies: [VIEW]

Runways:

Airport contact information

Address: Oschatz Germany

Satellite view of ED1766